Alma — WDF2845 — position and weather

sailwx.info

Track history (hours):
 
Tides and Currents Weather Stations Pressure Air Temp Water Temp Dewpoint Dewpoint Depression Visibility Wind Speed Wind Dir Waves Ship Positions

Alma

Owner: National Park Service, San Francisco, CA. More information available from US FCC via Universal Licensing System and Coast Guard Vessel Documentation Center.

Last reported at 2017-Oct-05 22:48 UTC. Time now 2017-Oct-18 11:20 UTC.
Position N 37°49' W 122°25'.
Warning: this ship's position is 12 days out of date.

Length 20 m; draft 1.6 m.

Type: Sailing vessel. MMSI: 367432550.

Date/timePositionNaut miles runAvg speedWind from/ knotsBaromVisibWave heightAir tempDewpointWater temp
2017-Oct-05 22:48N 37°49' W 122°25'0 0.0
2017-Oct-05 22:30N 37°49' W 122°25'1 1.9
2017-Oct-05 22:00N 37°49' W 122°24'1 2.3
2017-Oct-05 21:30N 37°50' W 122°25'0 0.8
2017-Oct-05 21:00N 37°50' W 122°25'1 2.5
2017-Oct-05 20:30N 37°49' W 122°25'1 1.1
2017-Oct-05 20:00N 37°49' W 122°25'0 0.0
2017-Oct-05 19:30N 37°49' W 122°25'0 0.0
2017-Oct-05 19:00N 37°49' W 122°25'0 0.2
2017-Oct-05 18:30N 37°49' W 122°25'1 1.8
2017-Oct-05 18:00N 37°49' W 122°24'1 2.2
2017-Oct-05 17:30N 37°49' W 122°25'1 1.5
2017-Oct-05 17:00N 37°49' W 122°26'  
2017-Sep-29 19:35N 37°49' W 122°25'0 0.0
2017-Sep-29 19:31N 37°49' W 122°25'0 0.0
2017-Sep-29 19:00N 37°49' W 122°25'1 1.5
2017-Sep-29 18:30N 37°49' W 122°26'1 1.4
2017-Sep-29 18:00N 37°49' W 122°27'1 1.3
2017-Sep-29 17:30N 37°49' W 122°27'1 2.0
2017-Sep-29 17:00N 37°49' W 122°26'0 0.6
2017-Sep-29 16:30N 37°49' W 122°25'0 0.0
2017-Sep-29 16:00N 37°49' W 122°25'0 0.0
2017-Sep-29 15:30N 37°49' W 122°25'0 0.0
2017-Sep-28 22:49N 37°49' W 122°25'0 0.0
2017-Sep-28 22:30N 37°49' W 122°25'0 0.9
2017-Sep-28 22:01N 37°49' W 122°26'1 2.3
2017-Sep-28 21:30N 37°49' W 122°27'1 1.6
2017-Sep-28 21:00N 37°50' W 122°27'2 4.4
2017-Sep-28 20:30N 37°49' W 122°26'0 0.6
2017-Sep-28 20:00N 37°49' W 122°25'0 0.0
2017-Sep-28 19:30N 37°49' W 122°25'0 0.0
2017-Sep-28 19:00N 37°49' W 122°25'0 0.7
2017-Sep-28 18:30N 37°49' W 122°26'2 4.2
2017-Sep-28 18:01N 37°50' W 122°27'0 0.1
2017-Sep-28 17:30N 37°50' W 122°27'2 4.5
2017-Sep-28 17:00N 37°49' W 122°26'0 0.6
2017-Sep-28 16:30N 37°49' W 122°25'0 0.0
2017-Sep-28 16:00N 37°49' W 122°25'0 0.0
2017-Sep-28 15:30N 37°49' W 122°25'0 0.0
2017-Sep-28 15:00N 37°49' W 122°25'0 0.0
2017-Sep-27 22:19N 37°49' W 122°25'0 0.0
2017-Sep-27 22:01N 37°49' W 122°25'1 2.2
2017-Sep-27 21:31N 37°48' W 122°24'2 3.2
2017-Sep-27 21:01N 37°49' W 122°26'2 3.8
2017-Sep-27 20:31N 37°49' W 122°28'1 2.0
2017-Sep-27 20:01N 37°49' W 122°29'0 0.9
2017-Sep-27 19:30N 37°49' W 122°30'0 0.9
2017-Sep-27 19:01N 37°49' W 122°29'3 6.3
2017-Sep-27 18:31N 37°49' W 122°25'0 0.3
2017-Sep-27 18:01N 37°49' W 122°25'0 0.0
2017-Sep-27 17:31N 37°49' W 122°25'0 0.0
2017-Sep-27 17:01N 37°49' W 122°25'  
Track history (hours):
 
Tides and Currents Weather Stations Pressure Air Temp Water Temp Dewpoint Dewpoint Depression Visibility Wind Speed Wind Dir Waves Ship Positions

Alma

Owner: National Park Service, San Francisco, CA. More information available from US FCC via Universal Licensing System and Coast Guard Vessel Documentation Center.

Last reported at 2017-Oct-05 22:48 UTC. Time now 2017-Oct-18 11:20 UTC.
Position N 37°49' W 122°25'.
Warning: this ship's position is 12 days out of date.

Length 20 m; draft 1.6 m.

Type: Sailing vessel. MMSI: 367432550.

Date/timePositionNaut miles runAvg speedWind from/ knotsBaromVisibWave heightAir tempDewpointWater temp
2017-Oct-05 22:48N 37°49' W 122°25'0 0.0
2017-Oct-05 22:30N 37°49' W 122°25'1 1.9
2017-Oct-05 22:00N 37°49' W 122°24'1 2.3
2017-Oct-05 21:30N 37°50' W 122°25'0 0.8
2017-Oct-05 21:00N 37°50' W 122°25'1 2.5
2017-Oct-05 20:30N 37°49' W 122°25'1 1.1
2017-Oct-05 20:00N 37°49' W 122°25'0 0.0
2017-Oct-05 19:30N 37°49' W 122°25'0 0.0
2017-Oct-05 19:00N 37°49' W 122°25'0 0.2
2017-Oct-05 18:30N 37°49' W 122°25'1 1.8
2017-Oct-05 18:00N 37°49' W 122°24'1 2.2
2017-Oct-05 17:30N 37°49' W 122°25'1 1.5
2017-Oct-05 17:00N 37°49' W 122°26'  
2017-Sep-29 19:35N 37°49' W 122°25'0 0.0
2017-Sep-29 19:31N 37°49' W 122°25'0 0.0
2017-Sep-29 19:00N 37°49' W 122°25'1 1.5
2017-Sep-29 18:30N 37°49' W 122°26'1 1.4
2017-Sep-29 18:00N 37°49' W 122°27'1 1.3
2017-Sep-29 17:30N 37°49' W 122°27'1 2.0
2017-Sep-29 17:00N 37°49' W 122°26'0 0.6
2017-Sep-29 16:30N 37°49' W 122°25'0 0.0
2017-Sep-29 16:00N 37°49' W 122°25'0 0.0
2017-Sep-29 15:30N 37°49' W 122°25'0 0.0
2017-Sep-28 22:49N 37°49' W 122°25'0 0.0
2017-Sep-28 22:30N 37°49' W 122°25'0 0.9
2017-Sep-28 22:01N 37°49' W 122°26'1 2.3
2017-Sep-28 21:30N 37°49' W 122°27'1 1.6
2017-Sep-28 21:00N 37°50' W 122°27'2 4.4
2017-Sep-28 20:30N 37°49' W 122°26'0 0.6
2017-Sep-28 20:00N 37°49' W 122°25'0 0.0
2017-Sep-28 19:30N 37°49' W 122°25'0 0.0
2017-Sep-28 19:00N 37°49' W 122°25'0 0.7
2017-Sep-28 18:30N 37°49' W 122°26'2 4.2
2017-Sep-28 18:01N 37°50' W 122°27'0 0.1
2017-Sep-28 17:30N 37°50' W 122°27'2 4.5
2017-Sep-28 17:00N 37°49' W 122°26'0 0.6
2017-Sep-28 16:30N 37°49' W 122°25'0 0.0
2017-Sep-28 16:00N 37°49' W 122°25'0 0.0
2017-Sep-28 15:30N 37°49' W 122°25'0 0.0
2017-Sep-28 15:00N 37°49' W 122°25'0 0.0
2017-Sep-27 22:19N 37°49' W 122°25'0 0.0
2017-Sep-27 22:01N 37°49' W 122°25'1 2.2
2017-Sep-27 21:31N 37°48' W 122°24'2 3.2
2017-Sep-27 21:01N 37°49' W 122°26'2 3.8
2017-Sep-27 20:31N 37°49' W 122°28'1 2.0
2017-Sep-27 20:01N 37°49' W 122°29'0 0.9
2017-Sep-27 19:30N 37°49' W 122°30'0 0.9
2017-Sep-27 19:01N 37°49' W 122°29'3 6.3
2017-Sep-27 18:31N 37°49' W 122°25'0 0.3
2017-Sep-27 18:01N 37°49' W 122°25'0 0.0
2017-Sep-27 17:31N 37°49' W 122°25'0 0.0
2017-Sep-27 17:01N 37°49' W 122°25'  

Dump ship's entire track history